Tiempo atmosférico en la estación meteorológica de Jerez de la Frontera Aeropuerto, Cádiz (27 m.)



Fecha
DESCASC
Temp. máxima en grados centígrados (hora)
DESCASC
Temp. mínima en grados centígrados (hora)
DESCASC
Temp. media en grados centígrados
DESCASC
Racha de viento máxima en m/sg (hora)
DESCASC
Velocidad máxima media en intervalos de 10 minutos(hora)
DESCASC
Precipitaciones diarias en mm
DESCASC
Precipitaciones de 00:00 a 06:00 en mm
DESCASC
Precipitaciones de 06:00 a 12:00 en mm
DESCASC
Precipitaciones de 12:00 a 18:00 en mm
DESCASC
Precipitaciones de 18:00 a 24:00 en mm
DESCASC
23-06-2019 30.7 (15:20) 14.6 (07:00) 22.7 9.17 (15:40) 6.67 (15:40) 0 0 0 0 0
22-06-2019 31.6 (13:50) 12.8 (07:00) 22.2 9.17 (16:40) 6.67 (19:00) 0 0 0 0 0
21-06-2019 28.7 (15:50) 12.2 (07:00) 20.5 8.33 (14:40) 5.83 (19:40) 0 0 0 0 0
20-06-2019 27 (14:50) 13.7 (00:00) 20.3 11.67 (16:00) 7.78 (17:20) -- 0 -- 0 0
19-06-2019 28.6 (16:40) 18.1 (00:00) 23.4 10.28 (17:00) 7.22 (20:00) 0 0 0 0 0
18-06-2019 26.5 (15:30) 12.1 (00:00) 19.3 9.72 (17:00) 6.11 (16:00) 0 0 0 0 0
17-06-2019 29.4 (14:00) 10.9 (00:00) 20.1 9.17 (13:40) 6.39 (17:10) 0 0 0 0 0
16-06-2019 29 (16:30) 11.2 (00:00) 20.1 10.28 (16:40) 7.5 (17:30) 0 0 0 0 0
15-06-2019 28.9 (17:40) 9.2 (00:00) 19 10.28 (19:20) 7.22 (19:20) 0 0 0 0 0
14-06-2019 23.4 (16:10) 15.3 (00:00) 19.3 12.5 (14:00) 7.78 (13:10) 0 0 0 0 0
13-06-2019 29.4 (16:20) 13.2 (00:00) 21.3 10.28 (17:50) 6.67 (19:30) 0 0 0 0 0
12-06-2019 30.2 (14:30) 13.4 (00:00) 21.8 9.72 (17:50) 6.94 (17:50) 0 0 0 0 0
11-06-2019 27 (17:40) 10.7 (00:00) 18.8 11.67 (15:40) 7.5 (15:40) 0 0 0 0 0
10-06-2019 27.1 (15:30) 12.9 (00:00) 20 11.39 (16:40) 8.33 (18:50) 0 0 0 0 0
09-06-2019 27.8 (15:50) 15.8 (00:00) 21.8 11.39 (18:00) 8.06 (18:40) 0 0 0 0 0
08-06-2019 29.9 (15:00) 9.9 (00:00) 19.9 9.72 (16:40) 6.39 (17:40) 0 0 0 0 0
07-06-2019 27.6 (18:50) 14.8 (00:00) 21.2 13.89 (20:40) 6.39 (21:00) 1.2 0.3 0.9 0 0
06-06-2019 -- (--) -- (--) -- -- (--) -- (--) -- 0 -- -- 0
05-06-2019 25.2 (17:20) 13.2 (00:00) 19.2 12.5 (01:50) 7.5 (19:50) 0 0 0 0 0
04-06-2019 28.7 (14:40) 12 (00:00) 20.4 11.67 (15:50) 7.5 (19:30) 0 0 0 0 0
03-06-2019 35.1 (16:50) 12.4 (00:00) 23.7 8.89 (19:30) 6.39 (19:30) 0 0 0 0 0
02-06-2019 34.3 (16:50) 15.9 (00:00) 25.1 8.89 (17:30) 5.28 (19:00) 0 0 0 0 0
01-06-2019 32.6 (16:10) 18.5 (00:00) 25.5 14.44 (03:00) 9.17 (03:10) 0 0 0 0 0
31-05-2019 31.7 (15:10) 19 (00:00) 25.4 16.94 (17:00) 11.67 (16:30) -- 0 0 -- 0
30-05-2019 30.3 (15:30) 15.5 (00:00) 22.9 15.28 (16:50) 11.11 (17:00) 0 0 0 0 0
29-05-2019 32.7 (15:50) 14.4 (00:00) 23.6 9.17 (18:50) 5.83 (18:50) 0 0 0 0 0
28-05-2019 33.1 (14:20) 13.4 (00:00) 23.2 9.17 (15:50) 6.11 (16:10) 0 0 0 0 0
27-05-2019 35.3 (16:00) 12.5 (00:00) 23.9 10.28 (16:50) 7.22 (19:00) 0 0 0 0 0
26-05-2019 32.8 (17:10) 12.6 (00:00) 22.7 11.67 (16:40) 7.22 (18:00) 0 0 0 0 0
25-05-2019 31.5 (17:40) 14.1 (00:00) 22.8 11.67 (15:10) 7.5 (19:10) 0 0 0 0 0

Gráficas

Temp. máximas Temp. mínimas Temp. medias Precipitaciones Rachas de viento máximas Velocidades máximas media en intervalos de 10 minutos

Datos horarios

Fecha y hora oficial Temperatura (ºC) Velocidad del viento (km/h) Dirección del viento Racha (km/h) Dirección de racha Precipitación (mm) Presión (hPa) Tendencia (hPa) Humedad (%)
2019-06-23 23:00:00 21.1 8 Oeste 18 Oeste 0 1010.5 1.9 68
2019-06-23 22:00:00 22 14 Oeste 26 Oeste 0 1009.7 1.2 66
2019-06-23 21:00:00 25.6 14 Oeste 24 Sudoeste 0 1009.1 0.3 56
2019-06-23 20:00:00 27 17 Sudoeste 26 Sudoeste 0 1008.6 -0.4 48
2019-06-23 19:00:00 28.6 18 Sudoeste 32 Sudoeste 0 1008.5 -0.8 48
2019-06-23 18:00:00 29.1 19 Sudoeste 32 Sudoeste 0 1008.8 -0.7 50
2019-06-23 17:00:00 29.4 15 Sudoeste 30 Oeste 0 1009 -0.8 50
2019-06-23 16:00:00 29.5 23 Oeste 33 Oeste 0 1009.3 -1.2 52
2019-06-23 15:00:00 30.4 10 Sudoeste 24 Sur 0 1009.5 -1.1 46
2019-06-23 14:00:00 30 13 Sudoeste 24 Sudoeste 0 1009.8 -1 48
2019-06-23 13:00:00 28.7 6 Sudoeste 18 Sudeste 0 1010.5 -0.2 50
2019-06-23 12:00:00 27.4 8 Sudeste 18 Sur 0 1010.6 0 54
2019-06-23 11:00:00 25.6 10 Sur 18 Sur 0 1010.8 0.6 63
2019-06-23 10:00:00 22.9 13 Sudeste 22 Sudeste 0 1010.7 0.2 74
2019-06-23 09:00:00 20.4 5 Sur 11 Sur 0 1010.6 0.2 82
2019-06-23 08:00:00 16.2 5 Sur 9 Sur 0 1010.2 -0.1 91
2019-06-23 07:00:00 14.6 4 Este 5 Nordeste 0 1010.5 0.3 90
2019-06-23 06:00:00 15.1 0 Calma 5 Este 0 1010.4 -0.3 85
2019-06-23 05:00:00 15.4 2 Nordeste 9 Norte 0 1010.3 -0.6 83
2019-06-23 04:00:00 15.7 6 Norte 9 Norte 0 1010.2 -1.1 80
2019-06-23 03:00:00 16.9 3 Sudeste 5 Sur 0 1010.7 -0.6 80
2019-06-23 02:00:00 17.7 3 Este 5 Este 0 1010.9 0 79
2019-06-23 01:00:00 19.1 0 Calma 11 Sudoeste 0 1011.3 1.2 70
2019-06-23 00:00:00 20.1 8 Sudoeste 15 Oeste 0 1011.3 1.5 64
2019-06-22 23:00:00 22.1 14 Sudoeste 21 Sudoeste 0 1010.9 1.3 55
2019-06-22 22:00:00 23.5 15 Sudoeste 21 Sudoeste 0 1010.1 0.6 51
2019-06-22 21:00:00 26 15 Sudoeste 22 Sudoeste 0 1009.8 0.2 48
2019-06-22 20:00:00 27 18 Sudoeste 30 Sudoeste 0 1009.6 -0.1 48
2019-06-22 19:00:00 28.6 24 Sudoeste 32 Sudoeste 0 1009.5 -0.7 43
2019-06-22 18:00:00 29.7 23 Sudoeste 32 Sudoeste 0 1009.6 -1.1 42
2019-06-22 17:00:00 30.4 22 Sudoeste 33 Oeste 0 1009.7 -1.3 42
2019-06-22 16:00:00 30 18 Sudoeste 30 Sudoeste 0 1010.2 -1.4 46
2019-06-22 15:00:00 30.7 14 Sudoeste 26 Sudoeste 0 1010.7 -1.1 44
2019-06-22 14:00:00 31 13 Sur 26 Sudoeste 0 1011 -0.9 40
2019-06-22 13:00:00 29.9 4 Este 17 Sur 0 1011.6 -0.4 42
2019-06-22 12:00:00 27.6 6 Sudeste 18 Sur 0 1011.8 -0.3 48
2019-06-22 11:00:00 24.9 10 Sur 17 Sur 0 1011.9 0.2 57
2019-06-22 10:00:00 21.6 11 Sur 18 Sudeste 0 1012 0.8 71
2019-06-22 09:00:00 18.8 4 Sudeste 9 Sudeste 0 1012.1 1.4 82
2019-06-22 08:00:00 15.2 0 Calma 11 Sudeste 0 1011.7 1 92
2019-06-22 07:00:00 12.9 3 Este 5 Nordeste 0 1011.2 0.3 91
2019-06-22 06:00:00 13.3 3 Este 5 Este 0 1010.7 -0.4 92
2019-06-22 05:00:00 14 5 Este 8 Este 0 1010.7 -0.8 90
2019-06-22 04:00:00 14.3 0 Calma 5 Este 0 1010.9 -1 89
2019-06-22 03:00:00 15.3 4 Sudeste 9 Sur 0 1011.1 -0.9 90
2019-06-22 02:00:00 16.3 6 Sur 9 Sur 0 1011.5 -0.3 86
2019-06-22 01:00:00 17.3 5 Sudeste 9 Sudeste 0 1011.9 0.4 81
2019-06-22 00:00:00 18.3 8 Sudeste 13 Sur 0 1012 0.7 77
2019-06-21 23:00:00 19.5 9 Sudeste 13 Sudoeste 0 1011.8 0.7 71
2019-06-21 22:00:00 21.6 11 Sudoeste 22 Sudoeste 0 1011.5 0.4 60
2019-06-21 21:00:00 23.7 18 Sudoeste 28 Sudoeste 0 1011.3 -0.2 54
2019-06-21 20:00:00 25.6 21 Sudoeste 28 Sudoeste 0 1011.1 -0.6 50
2019-06-21 19:00:00 27.6 17 Oeste 30 Sudoeste 0 1011.1 -0.9 41
2019-06-21 18:00:00 28.2 17 Oeste 28 Oeste 0 1011.5 -0.6 38
2019-06-21 17:00:00 28.1 15 Oeste 30 Oeste 0 1011.7 -1 38
2019-06-21 16:00:00 28.5 18 Sudoeste 28 Oeste 0 1012 -1.3 32
2019-06-21 15:00:00 28.1 15 Oeste 30 Sudoeste 0 1012.1 -1.5 35
2019-06-21 14:00:00 27.1 15 Sudoeste 26 Sudoeste 0 1012.7 -1.1 37
2019-06-21 13:00:00 25.4 11 Sudoeste 28 Sudoeste 0 1013.3 -0.6 42
2019-06-21 12:00:00 23.6 10 Sudoeste 21 Sudoeste 0 1013.6 -0.1 51
2019-06-21 11:00:00 21.5 8 Sudoeste 18 Sudoeste 0 1013.8 0.4 56
2019-06-21 10:00:00 19.6 10 Noroeste 22 Noroeste 0 1013.9 0.9 62
2019-06-21 09:00:00 16.9 13 Noroeste 18 Noroeste 0 1013.7 1.1 73
2019-06-21 08:00:00 13.6 0 Calma -- -- 0 1013.4 0.7 92
2019-06-21 07:00:00 12.3 0 Calma 5 Este 0 1013 0.2 91
2019-06-21 06:00:00 13 3 Este 5 Este 0 1012.6 -0.2 94
2019-06-21 05:00:00 13.5 0 Calma 5 Este 0 1012.7 0 92
2019-06-21 04:00:00 14.1 4 Norte 5 Norte 0 1012.8 0.1 88
2019-06-21 03:00:00 14.9 0 Calma 5 Norte 0 1012.8 0.3 90
2019-06-21 02:00:00 15.9 8 Este 9 Este 0 1012.7 0.5 89
2019-06-21 01:00:00 18 7 Sur 15 Sudoeste 0 1012.7 0.8 81
2019-06-21 00:00:00 18.9 9 Sur 22 Sudoeste 0 1012.5 0.8 76
2019-06-20 23:00:00 20 16 Sudoeste 22 Sudoeste 0 1012.2 0.6 70
2019-06-20 22:00:00 20.9 15 Sudoeste 30 Sudoeste 0 1011.9 0.3 64
2019-06-20 21:00:00 23.1 22 Sudoeste 33 Sudoeste 0 1011.7 -0.2 54
2019-06-20 20:00:00 24.3 22 Sudoeste 35 Sudoeste 0 1011.6 -0.3 49
2019-06-20 19:00:00 24.7 23 Sudoeste 37 Sudoeste 0 1011.6 -0.6 50
2019-06-20 18:00:00 25.5 25 Sudoeste 42 Sudoeste 0 1011.9 -0.9 50
2019-06-20 17:00:00 25.9 25 Sudoeste 41 Sudoeste 0 1011.9 -1.3 49
2019-06-20 16:00:00 26.3 27 Sudoeste 42 Sudoeste 0 1012.2 -1 44
2019-06-20 15:00:00 26.1 27 Sudoeste 41 Sudoeste 0 1012.8 -0.6 44
2019-06-20 14:00:00 26.6 26 Sudoeste 41 Sudoeste 0 1013.2 0.1 41
2019-06-20 13:00:00 25.4 19 Sudoeste 33 Oeste 0 1013.2 0.1 44
2019-06-20 12:00:00 25.1 19 Oeste 33 Sudoeste 0 1013.4 0.3 48
2019-06-20 11:00:00 24 15 Oeste 26 Oeste -- 1013.1 0.2 53
2019-06-20 10:00:00 21.4 8 Oeste 17 Oeste -- 1013.1 0.4 71
2019-06-20 09:00:00 18.5 0 Calma 5 Este 0 1013.1 0.5 84
2019-06-20 08:00:00 15 0 Calma 4 Sudeste 0 1012.9 0.4 95
2019-06-20 07:00:00 13.8 0 Calma 4 Sur 0 1012.7 0 96
2019-06-20 06:00:00 14.5 0 Calma 5 Este 0 1012.6 -0.5 96
2019-06-20 05:00:00 14.7 4 Nordeste 5 Nordeste 0 1012.5 -1 94
2019-06-20 04:00:00 16.5 0 Calma 11 Sur 0 1012.7 -1 91
2019-06-20 03:00:00 17.6 5 Sur 13 Sur 0 1013.1 -0.7 91
2019-06-20 02:00:00 18.2 9 Sur 15 Sudoeste 0 1013.5 0.2 90
2019-06-20 01:00:00 18.5 9 Sur 17 Sur 0 1013.7 0.7 91
2019-06-20 00:00:00 18.6 10 Sur 18 Sudoeste 0 1013.8 1 88
2019-06-19 23:00:00 19.5 12 Sudoeste 22 Sudoeste 0 1013.3 0.8 84
2019-06-19 22:00:00 20.6 16 Oeste 33 Oeste 0 1013 0.7 79
2019-06-19 21:00:00 22.2 23 Oeste 35 Sudoeste 0 1012.8 0.3 71
2019-06-19 20:00:00 24.2 26 Sudoeste 37 Sudoeste 0 1012.5 -0.1 61
2019-06-19 19:00:00 26.3 21 Oeste 35 Sudoeste 0 1012.3 -0.7 52
2019-06-19 18:00:00 27 21 Oeste 35 Oeste 0 1012.5 -1 48
2019-06-19 17:00:00 27.7 20 Oeste 37 Oeste 0 1012.6 -1.5 47
2019-06-19 16:00:00 27.9 12 Sudoeste 28 Sudoeste 0 1013 -1.4 46
2019-06-19 15:00:00 27.7 18 Oeste 33 Oeste 0 1013.5 -1 45
2019-06-19 14:00:00 27.4 10 Oeste 24 Sudoeste 0 1014.1 -0.3 46
2019-06-19 13:00:00 25.9 9 Noroeste 24 Noroeste 0 1014.4 -0.2 50
2019-06-19 12:00:00 24.7 12 Noroeste 24 Norte 0 1014.5 0 56
2019-06-19 11:00:00 22.5 11 Noroeste 21 Noroeste 0 1014.4 0.4 64
2019-06-19 10:00:00 21.2 11 Noroeste 18 Noroeste 0 1014.6 0.7 74
2019-06-19 09:00:00 19.3 11 Noroeste 18 Norte 0 1014.5 0.7 88
2019-06-19 08:00:00 18.7 10 Noroeste 15 Noroeste 0 1014 0.2 91
2019-06-19 07:00:00 18.7 5 Oeste 11 Sudoeste 0 1013.9 0 90
2019-06-19 06:00:00 19.1 8 Sudoeste 11 Sudoeste 0 1013.8 -0.4 87
2019-06-19 05:00:00 18.2 6 Sudoeste 13 Sudoeste 0 1013.8 -0.7 90
2019-06-19 04:00:00 19.1 11 Oeste 15 Sudoeste 0 1013.9 -0.6 87
2019-06-19 03:00:00 18.9 11 Sudoeste 21 Sudoeste 0 1014.2 -0.4 89
2019-06-19 02:00:00 19.2 12 Sudoeste 18 Oeste 0 1014.5 0 89
2019-06-19 01:00:00 19.2 14 Oeste 21 Sudoeste 0 1014.5 0.4 87
2019-06-19 00:00:00 19.1 13 Oeste 18 Oeste 0 1014.6 0.8 85
2019-06-18 23:00:00 19.7 9 Oeste 17 Oeste 0 1014.5 0.9 80
2019-06-18 22:00:00 20.7 12 Oeste 22 Oeste 0 1014.1 0.8 74
2019-06-18 21:00:00 22.4 15 Oeste 30 Sudoeste 0 1013.8 0.3 64
2019-06-18 20:00:00 24.2 15 Oeste 30 Oeste 0 1013.6 0 58
2019-06-18 19:00:00 25.1 18 Oeste 30 Oeste 0 1013.3 -0.7 56
2019-06-18 18:00:00 25.7 17 Oeste 33 Sudoeste 0 1013.5 -0.7 52
2019-06-18 17:00:00 25.6 20 Sudoeste 35 Sudoeste 0 1013.6 -0.9 53
2019-06-18 16:00:00 26.1 22 Sudoeste 33 Sudoeste 0 1014 -0.8 50
2019-06-18 15:00:00 25.6 12 Sudoeste 30 Sur 0 1014.2 -0.4 50
2019-06-18 14:00:00 24.6 16 Sur 33 Sur 0 1014.5 0 49
2019-06-18 13:00:00 24.1 14 Sudoeste 26 Sudoeste 0 1014.8 0.1 50
2019-06-18 12:00:00 23.1 14 Sur 24 Sudoeste 0 1014.6 0.4 53
2019-06-18 11:00:00 21.6 9 Sudoeste 24 Sudoeste 0 1014.5 0.7 59
2019-06-18 10:00:00 19.8 13 Sur 21 Sur 0 1014.7 1.4 67
2019-06-18 09:00:00 17.4 7 Sur 11 Sur 0 1014.2 1.3 84
2019-06-18 08:00:00 14.1 0 Calma 5 Este 0 1013.8 0.9 93
2019-06-18 07:00:00 13.2 4 Este 8 Este 0 1013.3 0.3 94
2019-06-18 06:00:00 12.5 5 Este 5 Este 0 1012.9 -0.2 94
2019-06-18 05:00:00 12.2 0 Calma 5 Este 0 1012.9 -0.3 93
2019-06-18 04:00:00 12.8 4 Este 5 Este 0 1013 -0.2 94
2019-06-18 03:00:00 14.2 2 Sudeste 9 Sur 0 1013.1 0 90
2019-06-18 02:00:00 15.7 4 Sur 13 Sudoeste 0 1013.2 0.6 90
2019-06-18 01:00:00 15.8 9 Sudoeste 11 Sudoeste 0 1013.2 1.2 87
2019-06-18 00:00:00 17.4 4 Oeste 13 Sudoeste 0 1013.1 1.2 79
2019-06-17 23:00:00 18.9 9 Oeste 17 Oeste 0 1012.6 0.5 63
2019-06-17 22:00:00 20.7 11 Oeste 22 Sudoeste 0 1012 0.2 58
2019-06-17 21:00:00 23.1 13 Sudoeste 26 Oeste 0 1011.9 -0.2 50
2019-06-17 20:00:00 24.8 18 Sudoeste 30 Sudoeste 0 1012.1 -0.1 48
2019-06-17 19:00:00 26.1 20 Sudoeste 33 Sudoeste 0 1011.8 -0.8 47
2019-06-17 18:00:00 27.5 22 Sudoeste 33 Sudoeste 0 1012.1 -1.1 44
2019-06-17 17:00:00 27.8 19 Sudoeste 33 Sudoeste 0 1012.2 -1.7 43
2019-06-17 16:00:00 27.8 20 Sudoeste 32 Sudoeste 0 1012.6 -1.4 47
2019-06-17 15:00:00 28.1 18 Sudoeste 28 Sudoeste 0 1013.2 -1.3 46
2019-06-17 14:00:00 29.1 18 Sur 33 Sur 0 1013.9 -1 37
2019-06-17 13:00:00 27.3 12 Sudeste 24 Sudeste 0 1014 -1.1 40
2019-06-17 12:00:00 25.5 10 Sudeste 21 Sudeste 0 1014.5 -0.5 45
2019-06-17 11:00:00 23.5 4 Sudeste 13 Sudeste 0 1014.9 0.3 46
2019-06-17 10:00:00 21.1 9 Sudeste 15 Sur 0 1015.1 0.4 59
2019-06-17 09:00:00 17.2 4 Este 9 Este 0 1015 0.3 77
2019-06-17 08:00:00 13.2 8 Este 11 Este 0 1014.6 -0.1 91
2019-06-17 07:00:00 11.1 7 Este 9 Este 0 1014.7 -0.4 96
2019-06-17 06:00:00 11.4 6 Nordeste 11 Nordeste 0 1014.7 -0.7 97
2019-06-17 05:00:00 11.5 9 Este 11 Este 0 1014.7 -0.9 96
2019-06-17 04:00:00 11.6 5 Este 8 Este 0 1015.1 -0.9 94
2019-06-17 03:00:00 12.3 4 Nordeste 8 Nordeste 0 1015.4 -0.6 90
2019-06-17 02:00:00 13.4 5 Nordeste 8 Nordeste 0 1015.6 0 91
2019-06-17 01:00:00 15.1 3 Sudeste 8 Sudeste 0 1016 1 91
2019-06-17 00:00:00 17.5 6 Sur 13 Sudoeste 0 1016 1.5 83
2019-06-16 23:00:00 19.2 12 Sudoeste 21 Oeste 0 1015.6 1.4 73
2019-06-16 22:00:00 21 14 Sudoeste 21 Sudoeste 0 1015 0.9 62
2019-06-16 21:00:00 23.9 17 Sudoeste 24 Sudoeste 0 1014.5 0.5 48
2019-06-16 20:00:00 25.9 16 Sudoeste 28 Sudoeste 0 1014.2 0.3 38
2019-06-16 19:00:00 27 21 Sudoeste 37 Sudoeste 0 1014.1 0.1 34
2019-06-16 18:00:00 27.6 26 Sudoeste 35 Sudoeste 0 1014 -0.4 34
2019-06-16 17:00:00 28.5 23 Sudoeste 37 Sur 0 1013.9 -0.8 35
2019-06-16 16:00:00 28.4 17 Sur 32 Sudoeste 0 1014 -0.8 44
2019-06-16 15:00:00 27.6 18 Sudoeste 30 Sudoeste 0 1014.4 -0.1 47
2019-06-16 14:00:00 27.1 15 Sur 30 Sur 0 1014.7 0.3 48
2019-06-16 13:00:00 26.1 21 Sur 30 Sur 0 1014.8 0.4 43
2019-06-16 12:00:00 24.9 14 Sur 22 Sur 0 1014.5 0.3 48
2019-06-16 11:00:00 22.7 10 Sur 17 Sudeste 0 1014.4 1.4 58
2019-06-16 10:00:00 19.8 8 Sur 13 Sur 0 1014.4 1.1 69
2019-06-16 09:00:00 15.6 5 Sur 8 Sur 0 1014.2 1.5 77
2019-06-16 08:00:00 13.2 5 Este 9 Este 0 1013 0 85
2019-06-16 07:00:00 12.1 6 Este 11 Este 0 1013.3 0.1 87
2019-06-16 06:00:00 11.8 8 Este 9 Este 0 1012.7 -0.6 86
2019-06-16 05:00:00 11.5 4 Este 5 Este 0 1013 -1 87
2019-06-16 04:00:00 12.2 0 Calma 5 Nordeste 0 1013.2 -1.5 84
2019-06-16 03:00:00 13.3 4 Este 8 Este 0 1013.3 -1.5 85
2019-06-16 02:00:00 13.3 0 Calma 8 Este 0 1014 -0.8 82
2019-06-16 01:00:00 14.3 3 Este 13 Este 0 1014.7 0.1 81
2019-06-16 00:00:00 15.9 9 Este 11 Este 0 1014.8 0.4 75
2019-06-15 23:00:00 18.1 6 Oeste 11 Sudoeste 0 1014.8 0.9 67
2019-06-15 22:00:00 19.2 4 Oeste 30 Oeste 0 1014.6 0.6 58
2019-06-15 21:00:00 20.6 19 Oeste 33 Oeste 0 1014.4 0.2 55
2019-06-15 20:00:00 23.4 24 Oeste 37 Oeste 0 1013.9 -0.8 45
2019-06-15 19:00:00 26.3 22 Oeste 33 Oeste 0 1014 -1.2 36
2019-06-15 18:00:00 27.8 19 Oeste 32 Oeste 0 1014.2 -1.4 33
2019-06-15 17:00:00 28.3 17 Norte 32 Nordeste 0 1014.7 -1.3 27
2019-06-15 16:00:00 27.4 17 Norte 35 Noroeste 0 1015.2 -1.3 29
2019-06-15 15:00:00 26.6 19 Noroeste 35 Noroeste 0 1015.6 -1.2 31
2019-06-15 14:00:00 26.3 14 Norte 28 Noroeste 0 1016 -0.8 32
2019-06-15 13:00:00 25.6 15 Norte 28 Norte 0 1016.5 -0.4 33
2019-06-15 12:00:00 24.6 15 Norte 30 Norte 0 1016.8 -0.1 35
2019-06-15 11:00:00 22.9 15 Norte 26 Norte 0 1016.8 0 42
2019-06-15 10:00:00 19.9 13 Norte 21 Norte 0 1016.9 0.5 55
2019-06-15 09:00:00 15.7 8 Norte 13 Noroeste 0 1016.9 0.7 65
2019-06-15 08:00:00 11.3 0 Calma 9 Noroeste 0 1016.8 0.6 81
2019-06-15 07:00:00 9.5 5 Noroeste 9 Noroeste 0 1016.4 0.2 85
2019-06-15 06:00:00 10 5 Norte -- -- 0 1016.2 -0.2 87
2019-06-15 05:00:00 10.7 3 Nordeste 8 Oeste 0 1016.2 -0.3 91
2019-06-15 04:00:00 11.3 0 Calma 8 Noroeste 0 1016.2 -0.7 89
2019-06-15 03:00:00 12.1 6 Norte 8 Norte 0 1016.4 -0.6 83
2019-06-15 02:00:00 13.7 3 Sudeste 9 Sur 0 1016.5 -0.3 82
2019-06-15 01:00:00 15.8 8 Sur 13 Sudoeste 0 1016.9 0.7 74
2019-06-15 00:00:00 16 11 Sudoeste 15 Sur 0 1017 1.2 70
2019-06-14 23:00:00 17.6 12 Sudoeste 26 Oeste 0 1016.8 1.5 63
2019-06-14 22:00:00 18.2 18 Oeste 30 Oeste 0 1016.2 1.3 61
2019-06-14 21:00:00 19.6 22 Sudoeste 35 Sudoeste 0 1015.8 0.8 50
2019-06-14 20:00:00 21.5 25 Sudoeste 41 Sudoeste 0 1015.3 0.4 46
2019-06-14 19:00:00 22.4 22 Sudoeste 33 Oeste 0 1014.9 -0.1 41
2019-06-14 18:00:00 22.8 23 Sudoeste 39 Sudoeste 0 1015 -0.1 41
2019-06-14 17:00:00 22.4 25 Sudoeste 42 Oeste 0 1014.9 -0.5 42
2019-06-14 16:00:00 22.8 22 Sudoeste 37 Sudoeste 0 1015 -0.4 38
2019-06-14 15:00:00 22.6 27 Oeste 39 Sudoeste 0 1015.1 0 32
2019-06-14 14:00:00 21.7 26 Sudoeste 45 Sudoeste 0 1015.4 0.9 38
2019-06-14 13:00:00 21.3 24 Sudoeste 41 Sudoeste 0 1015.4 1.5 41
2019-06-14 12:00:00 20.8 23 Sudoeste 37 Sudoeste 0 1015.1 2.2 46
2019-06-14 11:00:00 19.6 22 Sudoeste 33 Oeste 0 1014.5 2.5 53
2019-06-14 10:00:00 18.6 18 Oeste 30 Oeste 0 1013.9 2.6 61
2019-06-14 09:00:00 17.2 20 Sudoeste 28 Sudoeste 0 1012.9 2.8 67
2019-06-14 08:00:00 15.5 12 Sudoeste 18 Sudoeste 0 1012 2 70
2019-06-14 07:00:00 15.4 13 Sudoeste 28 Sur 0 1011.3 1.1 72
2019-06-14 06:00:00 16.1 15 Sur 26 Sudeste 0 1010.1 -0.1 82
2019-06-14 05:00:00 16.1 12 Sur 18 Sur 0 1010 -0.4 79
2019-06-14 04:00:00 17.4 13 Sur 28 Sur 0 1010.2 -0.5 73
2019-06-14 03:00:00 18.7 14 Sur 21 Sur 0 1010.2 -0.2 69
2019-06-14 02:00:00 19.1 16 Sur 24 Sur 0 1010.4 0.8 65
2019-06-14 01:00:00 19.3 13 Sur 21 Sur 0 1010.7 2.3 63
2019-06-14 00:00:00 19.4 10 Sur 17 Sur 0 1010.4 3 59
2019-06-13 23:00:00 20.1 12 Sudoeste 26 Sudoeste 0 1009.6 2.3 57
2019-06-13 22:00:00 20.8 16 Sudoeste 24 Sudoeste 0 1008.4 1.7 51
2019-06-13 21:00:00 22.7 15 Oeste 28 Sudoeste 0 1007.4 1.2 48
2019-06-13 20:00:00 23.2 22 Sudoeste 33 Sudoeste 0 1007.3 1.1 47
2019-06-13 19:00:00 24.7 22 Sudoeste 32 Sudoeste 0 1006.7 0.6 40
2019-06-13 18:00:00 26.8 22 Oeste 37 Sudoeste 0 1006.2 -0.3 41
2019-06-13 17:00:00 28.1 21 Oeste 35 Sur 0 1006.2 -0.7 41
2019-06-13 16:00:00 28.6 13 Sudeste 22 Sudeste 0 1006.1 -1.2 42
2019-06-13 15:00:00 27.8 11 Sur 28 Sudoeste 0 1006.5 -1.1 44
2019-06-13 14:00:00 27.8 9 Sudeste 18 Sur 0 1006.9 -0.9 44
2019-06-13 13:00:00 26.4 7 Sudeste 15 Sudeste 0 1007.3 -0.6 45
2019-06-13 12:00:00 25.1 4 Nordeste 15 Oeste 0 1007.6 -0.2 45
2019-06-13 11:00:00 22.3 5 Sudoeste 15 Noroeste 0 1007.8 0.2 48
2019-06-13 10:00:00 19.6 7 Noroeste 15 Oeste 0 1007.9 0.7 47
2019-06-13 09:00:00 17.4 10 Oeste 17 Oeste 0 1007.8 0.7 59
2019-06-13 08:00:00 14.3 0 Calma 11 Oeste 0 1007.6 0.6 93
2019-06-13 07:00:00 13.6 4 Este 13 Este 0 1007.2 0 91
2019-06-13 06:00:00 14.3 6 Este 11 Este 0 1007.1 -0.5 91
2019-06-13 05:00:00 14.4 7 Este 11 Nordeste 0 1007 -1 93
2019-06-13 04:00:00 15.7 6 Norte 9 Norte 0 1007.2 -0.9 90
2019-06-13 03:00:00 17.6 7 Sur 18 Oeste 0 1007.6 -0.5 83
2019-06-13 02:00:00 18.1 13 Oeste 17 Sudoeste 0 1008 0.2 86
2019-06-13 01:00:00 18 10 Sudoeste 15 Sur 0 1008.1 1.1 82
2019-06-13 00:00:00 19.3 11 Sudoeste 17 Oeste 0 1008.1 1.6 85
2019-06-12 23:00:00 20.1 12 Sudoeste 18 Sudoeste 0 1007.8 1.5 81
2019-06-12 22:00:00 21.8 14 Oeste 21 Oeste 0 1007 0.6 71
2019-06-12 21:00:00 24.2 14 Oeste 21 Sudoeste 0 1006.5 -0.2 62
2019-06-12 20:00:00 25.6 14 Sudoeste 26 Sudoeste 0 1006.3 -0.3 56
2019-06-12 19:00:00 26.7 19 Oeste 32 Sur 0 1006.4 -0.6 52
2019-06-12 18:00:00 27.6 21 Sudoeste 35 Oeste 0 1006.7 -0.7 49
2019-06-12 17:00:00 29.3 14 Oeste 30 Oeste 0 1006.6 -1.5 43
2019-06-12 16:00:00 29.4 13 Sudoeste 24 Sudoeste 0 1007 -1.4 41
2019-06-12 15:00:00 28.5 9 Este 18 Norte 0 1007.4 -1.5 41
2019-06-12 14:00:00 28.9 7 Norte 18 Noroeste 0 1008.1 -0.8 41
2019-06-12 13:00:00 27.7 12 Norte 24 Noroeste 0 1008.4 -0.3 46
2019-06-12 12:00:00 26.3 8 Sudeste 18 Sudeste 0 1008.9 0.2 48
2019-06-12 11:00:00 24 5 Nordeste 17 Norte 0 1008.9 0.6 56
2019-06-12 10:00:00 21.2 5 Nordeste 11 Nordeste 0 1008.7 0.7 69
2019-06-12 09:00:00 18.2 0 Calma 8 Nordeste 0 1008.7 0.7 85
2019-06-12 08:00:00 14.7 5 Nordeste 9 Nordeste 0 1008.3 0.9 94
2019-06-12 07:00:00 14.7 0 Calma 11 Sur 0 1008 0.4 95
2019-06-12 06:00:00 14.8 5 Sur 11 Sur 0 1008 0.3 97
2019-06-12 05:00:00 14.8 3 Este 9 Sudeste 0 1007.4 -0.6 93
2019-06-12 04:00:00 14.7 6 Sudeste 9 Sudeste 0 1007.6 -0.7 91
2019-06-12 03:00:00 15 6 Este 9 Este 0 1007.7 -0.9 86
2019-06-12 02:00:00 15.7 5 Este 11 Este 0 1008 -0.5 85
2019-06-12 01:00:00 16.7 5 Este 13 Sudeste 0 1008.3 0 82
2019-06-12 00:00:00 18.1 8 Sudeste 15 Sudeste 0 1008.6 0.5 79
2019-06-11 23:00:00 18.9 10 Sur 17 Sur 0 1008.5 0.6 77
2019-06-11 22:00:00 20.6 13 Sudoeste 28 Sudoeste 0 1008.3 0.3 65
2019-06-11 21:00:00 22.1 20 Sudoeste 37 Sudoeste 0 1008.1 0 60
2019-06-11 20:00:00 24 23 Sudoeste 35 Oeste 0 1007.9 -0.4 50
2019-06-11 19:00:00 25.5 23 Sudoeste 41 Sudoeste 0 1008 -0.9 46
2019-06-11 18:00:00 26.3 25 Sudoeste 37 Sudoeste 0 1008.1 -0.9 42
2019-06-11 17:00:00 26.1 19 Sudoeste 37 Sudoeste 0 1008.3 -1.3 41
2019-06-11 16:00:00 26.5 20 Oeste 42 Sudoeste 0 1008.9 -1 38
2019-06-11 15:00:00 26 12 Sudoeste 26 Sudoeste 0 1009 -1.3 37
2019-06-11 14:00:00 25 11 Oeste 24 Oeste 0 1009.6 -0.6 38
2019-06-11 13:00:00 24.2 12 Oeste 28 Oeste 0 1009.9 -0.5 40
2019-06-11 12:00:00 22.2 11 Sudoeste 22 Sudoeste 0 1010.3 0 39
2019-06-11 11:00:00 20.4 7 Sudoeste 13 Sudoeste 0 1010.2 0 44
2019-06-11 10:00:00 18 6 Noroeste 18 Oeste 0 1010.4 0.5 51
2019-06-11 09:00:00 15.7 9 Oeste 15 Oeste 0 1010.3 0.3 60
2019-06-11 08:00:00 12 0 Calma 5 Oeste 0 1010.2 -0.3 91
2019-06-11 07:00:00 10.8 0 Calma 8 Noroeste 0 1009.9 -0.9 94
2019-06-11 06:00:00 11.6 0 Calma 5 Nordeste 0 1010 -1.3 93
2019-06-11 05:00:00 11.9 3 Nordeste 8 Noroeste 0 1010.5 -1.4 92
2019-06-11 04:00:00 12.7 3 Nordeste -- -- 0 1010.8 -1.8 93
2019-06-11 03:00:00 13.3 8 Nordeste 11 Nordeste 0 1011.3 -1.6 91
2019-06-11 02:00:00 15.5 3 Sur 13 Sur 0 1011.9 -1.2 86
2019-06-11 01:00:00 16.3 6 Sur 17 Sudeste 0 1012.6 -0.3 82
2019-06-11 00:00:00 16.9 12 Sudeste 18 Sudeste 0 1012.9 0.2 80
2019-06-10 23:00:00 17.8 10 Sur 24 Sudoeste 0 1013.1 0.4 76
2019-06-10 22:00:00 18.9 17 Sudoeste 30 Sudoeste 0 1012.9 0.1 73
2019-06-10 21:00:00 20.5 23 Sudoeste 37 Sur 0 1012.7 -0.1 62
2019-06-10 20:00:00 22.2 27 Sudoeste 39 Sudoeste 0 1012.7 -0.7 53
2019-06-10 19:00:00 24.6 27 Sudoeste 41 Sudoeste 0 1012.8 -0.8 42
2019-06-10 18:00:00 25.5 27 Sudoeste 41 Sudoeste 0 1012.8 -1.4 35
2019-06-10 17:00:00 26.2 28 Sudoeste 41 Sudoeste 0 1013.4 -1.1 35
2019-06-10 16:00:00 26.5 22 Oeste 35 Sudoeste 0 1013.6 -1.3 35
2019-06-10 15:00:00 26.3 20 Oeste 35 Oeste 0 1014.2 -1 36
2019-06-10 14:00:00 25.9 18 Oeste 33 Oeste 0 1014.5 -1.1 38
2019-06-10 13:00:00 25.9 13 Noroeste 32 Oeste 0 1014.9 -0.8 31
2019-06-10 12:00:00 24 9 Oeste 18 Oeste 0 1015.2 -0.6 43
2019-06-10 11:00:00 21.8 6 Oeste 13 Noroeste 0 1015.6 0.4 52
2019-06-10 10:00:00 19.2 2 Noroeste 15 Noroeste 0 1015.7 0.9 65
2019-06-10 09:00:00 16.6 12 Noroeste 26 Noroeste 0 1015.8 1 76
2019-06-10 08:00:00 13.8 0 Calma 8 Noroeste 0 1015.2 0.1 85
2019-06-10 07:00:00 13.3 0 Calma 8 Oeste 0 1014.8 -0.7 86
2019-06-10 06:00:00 14.1 5 Este 9 Noroeste 0 1014.8 -1 83
2019-06-10 05:00:00 15.1 6 Noroeste 17 Oeste 0 1015.1 -0.8 77
2019-06-10 04:00:00 15.6 8 Oeste 15 Oeste 0 1015.5 -0.7 74
2019-06-10 03:00:00 14.2 0 Calma 9 Nordeste 0 1015.8 -0.3 87
2019-06-10 02:00:00 14.7 4 Norte 9 Sur 0 1015.9 0 86
2019-06-10 01:00:00 16.6 6 Sudoeste 11 Sudeste 0 1016.2 0.6 83
2019-06-10 00:00:00 17.9 8 Sur 17 Sur 0 1016.1 0.6 79
2019-06-09 23:00:00 18.9 12 Sur 24 Sudoeste 0 1015.9 0.7 72
2019-06-09 22:00:00 20.5 19 Sudoeste 33 Sudoeste 0 1015.6 0.7 62
2019-06-09 21:00:00 21.9 24 Sudoeste 35 Sudoeste 0 1015.5 0.7 47
2019-06-09 20:00:00 23.4 25 Sudoeste 39 Sudoeste 0 1015.2 0.1 39
2019-06-09 19:00:00 24.9 28 Sudoeste 39 Sudoeste 0 1014.9 -0.5 31
2019-06-09 18:00:00 26.7 27 Sudoeste 41 Sudoeste 0 1014.8 -0.8 20
2019-06-09 17:00:00 27.1 25 Sudoeste 39 Sudoeste 0 1015.1 -1.1 21
2019-06-09 16:00:00 27.2 22 Oeste 35 Sudoeste 0 1015.4 -0.8 23
2019-06-09 15:00:00 26.8 18 Sudoeste 32 Sudoeste 0 1015.6 -0.6 21
2019-06-09 14:00:00 25.3 23 Sudoeste 35 Sudoeste 0 1016.2 0.2 40
2019-06-09 13:00:00 24.7 21 Sudoeste 32 Sudoeste 0 1016.2 0.2 48
2019-06-09 12:00:00 24.3 18 Sudoeste 30 Sudoeste 0 1016.2 0.3 54
2019-06-09 11:00:00 22.8 17 Sudoeste 30 Sur 0 1016 0.4 61
2019-06-09 10:00:00 21.5 18 Sudoeste 32 Sudoeste 0 1016 0.8 69
2019-06-09 09:00:00 19.4 9 Sur 13 Sur 0 1015.9 1 79
2019-06-09 08:00:00 16.4 3 Sur 11 Sudeste 0 1015.6 0.7 84
2019-06-09 07:00:00 16.1 5 Sudeste 11 Sur 0 1015.2 0.3 85
2019-06-09 06:00:00 17.4 8 Sur 15 Sur 0 1014.9 -0.4 81
2019-06-09 05:00:00 18.4 11 Sur 15 Sur 0 1014.9 -0.7 81
2019-06-09 04:00:00 19 9 Sur 15 Sudeste 0 1014.9 -1.1 78
2019-06-09 03:00:00 18.5 8 Sur 13 Sur 0 1015.3 -0.7 76
2019-06-09 02:00:00 18.7 10 Sur 15 Sur 0 1015.6 0.3 74
2019-06-09 01:00:00 19.1 12 Sur 18 Sur 0 1016 1.4 72
2019-06-09 00:00:00 19.9 12 Sur 21 Sur 0 1016 1.8 68
2019-06-08 23:00:00 20.6 9 Sur 21 Sudoeste 0 1015.3 1.8 57
2019-06-08 22:00:00 22 14 Sudoeste 21 Sudoeste 0 1014.6 1.4 48
2019-06-08 21:00:00 23.6 16 Sudoeste 24 Oeste 0 1014.2 1 41
2019-06-08 20:00:00 26.3 17 Sudoeste 30 Sudoeste 0 1013.5 0.2 33
2019-06-08 19:00:00 27.7 22 Sudoeste 33 Sudoeste 0 1013.2 -0.3 30
2019-06-08 18:00:00 28.4 22 Sudoeste 35 Sudoeste 0 1013.2 -0.4 29
2019-06-08 17:00:00 28.4 22 Sudoeste 35 Sudoeste 0 1013.3 -0.6 35
2019-06-08 16:00:00 28.8 14 Sudoeste 33 Sudoeste 0 1013.5 -0.7 41
2019-06-08 15:00:00 29.6 17 Sudoeste 30 Sur 0 1013.6 -0.6 39
2019-06-08 14:00:00 29.1 12 Sur 30 Sur 0 1013.9 -0.6 36
2019-06-08 13:00:00 27.5 12 Sur 26 Sur 0 1014.2 -0.5 39
2019-06-08 12:00:00 25.6 7 Sudeste 15 Sur 0 1014.2 -0.1 45
2019-06-08 11:00:00 23.7 4 Nordeste 11 Sudeste 0 1014.5 0.4 41
2019-06-08 10:00:00 19.5 4 Sudeste 9 Este 0 1014.7 1.1 60
2019-06-08 09:00:00 15.6 0 Calma 9 Este 0 1014.3 0.9 71
2019-06-08 08:00:00 11.8 4 Noroeste 5 Noroeste 0 1014.1 0.7 84
2019-06-08 07:00:00 11.1 0 Calma 9 Noroeste 0 1013.6 -0.1 84
2019-06-08 06:00:00 10.8 3 Noroeste 11 Noroeste 0 1013.4 -0.5 87
2019-06-08 05:00:00 11.1 4 Noroeste 9 Oeste 0 1013.4 -1 89
2019-06-08 04:00:00 11.4 3 Norte -- -- 0 1013.7 -1.1 88
2019-06-08 03:00:00 12.2 3 Norte 8 Norte 0 1013.9 -0.6 82
2019-06-08 02:00:00 12.8 3 Norte 13 Nordeste 0 1014.4 0 85
2019-06-08 01:00:00 14 9 Este 13 Este 0 1014.8 0.8 82
2019-06-08 00:00:00 16.3 3 Nordeste 9 Norte 0 1014.5 0.8 72
2019-06-07 23:00:00 17.8 2 Este 21 Oeste 0 1014.4 0.9 67
2019-06-07 22:00:00 19.5 17 Oeste 30 Oeste 0 1014 0.7 61
2019-06-07 21:00:00 21.7 23 Oeste 50 Oeste 0 1013.7 0.3 53
2019-06-07 20:00:00 24.5 22 Oeste 35 Oeste 0 1013.5 -0.1 40
2019-06-07 19:00:00 27.1 17 Noroeste 32 Noroeste 0 1013.3 -0.7 24
2019-06-07 18:00:00 27.1 18 Norte 39 Noroeste 0 1013.4 -0.9 22
2019-06-07 17:00:00 26.9 15 Noroeste 32 Noroeste 0 1013.6 -0.9 21
2019-06-07 16:00:00 26.2 18 Noroeste 30 Noroeste 0 1014 -0.7 22
2019-06-07 15:00:00 24.8 15 Noroeste 32 Noroeste 0 1014.3 -0.2 28
2019-06-07 14:00:00 24.1 17 Norte 30 Norte 0 1014.5 0 33
2019-06-07 13:00:00 22.7 17 Noroeste 32 Norte 0 1014.7 0.3 38
2019-06-07 12:00:00 20.9 16 Norte 28 Norte 0 1014.5 0.5 52
2019-06-07 11:00:00 18.8 19 Norte 30 Norte 0 1014.5 1.3 61
2019-06-07 10:00:00 17.5 17 Noroeste 28 Noroeste 0 1014.4 2 70
2019-06-07 09:00:00 16.3 19 Noroeste 26 Noroeste 0 1014 2.1 81
2019-06-07 08:00:00 16.2 8 Noroeste 17 Noroeste 0 1013.2 1.4 91
2019-06-07 07:00:00 15.9 10 Noroeste 30 Noroeste 0.9 1012.4 0.3 95
2019-06-07 06:00:00 16.7 8 Sudoeste 17 Sudoeste 0.3 1011.9 -0.2 94
2019-06-07 05:00:00 16.7 6 Sudeste 9 Sudeste 0 1011.8 -0.3 85
2019-06-07 04:00:00 15 4 Sudeste 11 Sudoeste 0 1012.1 0 88
2019-06-07 03:00:00 15.2 6 Sudoeste 11 Sur 0 1012.1 0.3 85
2019-06-07 02:00:00 15.9 8 Sur 13 Sur 0 1012.1 0.5 81
2019-06-07 01:00:00 16.6 10 Sur 17 Sur 0 1012.1 1.2 76
2019-06-07 00:00:00 16.7 11 Sur 17 Sudoeste 0 1011.8 1.4 74
2019-06-06 23:00:00 17 10 Sur 21 Sudoeste 0 1011.6 1.5 73
2019-06-06 22:00:00 18.5 14 Sudoeste 30 Sudoeste 0 1010.9 0.8 68
2019-06-06 21:00:00 20.2 19 Oeste 33 Sudoeste 0 1010.4 0.4 58
2019-06-06 20:00:00 21.5 26 Sudoeste 37 Sudoeste 0 1010.1 -0.1 49
2019-06-06 19:00:00 22.5 23 Sudoeste 37 Sudoeste 0 1010.1 -0.5 40
2019-06-06 18:00:00 24.1 23 Oeste 41 Sudoeste 0 1010 -0.8 29
2019-06-06 17:00:00 24.6 22 Sudoeste 37 Sudoeste 0 1010.2 -- 24
2019-06-06 16:00:00 24.8 23 Sudoeste 37 Sudoeste 0 1010.6 -- 27
2019-06-06 15:00:00 25.3 23 Sudoeste 33 Sudoeste 0 1010.8 -- 28
2019-06-06 14:00:00 -- -- -- -- -- -- -- -- --
2019-06-06 13:00:00 -- -- -- -- -- -- -- -- --
2019-06-06 12:00:00 -- -- -- -- -- -- -- -- --
2019-06-06 11:00:00 -- -- -- -- -- -- -- -- --
2019-06-06 10:00:00 -- -- -- -- -- -- -- -- --
2019-06-06 09:00:00 15.2 0 Calma 11 Noroeste 0 1012 0.1 63
2019-06-06 08:00:00 11.2 10 Noroeste 13 Noroeste 0 1011.8 -0.1 75
2019-06-06 07:00:00 9.4 7 Noroeste -- -- 0 1012.1 0.1 83
2019-06-06 06:00:00 10.1 0 Calma 5 Este 0 1011.9 -0.6 92
2019-06-06 05:00:00 10.9 0 Calma -- -- 0 1011.9 -1 92
2019-06-06 04:00:00 11.6 -- -- -- -- 0 1012 -1 85
2019-06-06 03:00:00 12.8 6 Norte 9 Noroeste 0 1012.5 -0.4 83
2019-06-06 02:00:00 14.2 6 Oeste 15 Noroeste 0 1012.9 0.4 82
2019-06-06 01:00:00 14.8 2 Nordeste 13 Sudeste 0 1013 1 76
2019-06-06 00:00:00 17.5 7 Sudeste 15 Sur 0 1012.9 1 67
2019-06-05 23:00:00 18 6 Sur 22 Sudoeste 0 1012.5 0.7 62
2019-06-05 22:00:00 19.6 15 Oeste 35 Sudoeste 0 1012 0 56
2019-06-05 21:00:00 21.2 21 Oeste 35 Oeste 0 1011.9 -0.3 49
2019-06-05 20:00:00 22.2 27 Oeste 39 Oeste 0 1011.8 -0.6 48
2019-06-05 19:00:00 23.2 24 Oeste 37 Oeste 0 1012 -0.9 44
2019-06-05 18:00:00 24.3 22 Oeste 41 Sudoeste 0 1012.2 -1.2 40
2019-06-05 17:00:00 24.4 18 Oeste 33 Oeste 0 1012.4 -1.5 36
2019-06-05 16:00:00 23.9 18 Sudoeste 33 Oeste 0 1012.9 -1.5 37
2019-06-05 15:00:00 23.7 18 Oeste 45 Oeste 0 1013.4 -1 38
2019-06-05 14:00:00 22.8 14 Oeste 35 Oeste 0 1013.9 -0.6 41
2019-06-05 13:00:00 22.2 15 Noroeste 35 Noroeste 0 1014.4 -0.1 40
2019-06-05 12:00:00 20.9 18 Noroeste 39 Noroeste 0 1014.4 0.3 44
2019-06-05 11:00:00 19.8 19 Noroeste 41 Oeste 0 1014.5 1 49
2019-06-05 10:00:00 18.1 22 Noroeste 32 Noroeste 0 1014.5 1.5 57
2019-06-05 09:00:00 16.5 26 Noroeste 33 Noroeste 0 1014.1 1.6 65
2019-06-05 08:00:00 14.1 15 Noroeste 22 Noroeste 0 1013.5 1.6 72
2019-06-05 07:00:00 13.7 16 Noroeste 24 Noroeste 0 1013 1.3 71
2019-06-05 06:00:00 14.7 17 Oeste 30 Oeste 0 1012.5 0.9 63
2019-06-05 05:00:00 16.1 20 Oeste 32 Oeste 0 1011.9 0.5 57
2019-06-05 04:00:00 17.8 21 Oeste 32 Oeste 0 1011.7 1 53
2019-06-05 03:00:00 19 19 Oeste 39 Oeste 0 1011.6 1.3 56
2019-06-05 02:00:00 20.5 21 Oeste 45 Oeste 0 1011.4 1.7 60
2019-06-05 01:00:00 22.1 13 Oeste 24 Oeste 0 1010.7 1.6 63
2019-06-05 00:00:00 20.4 10 Sudoeste 13 Sur 0 1010.3 1.3 77
2019-06-04 23:00:00 20.1 10 Sur 24 Sudoeste 0 1009.7 0.6 81
2019-06-04 22:00:00 21 17 Sudoeste 33 Sudoeste 0 1009.1 0 75
2019-06-04 21:00:00 22.9 23 Sudoeste 35 Sudoeste 0 1009 -0.3 64
2019-06-04 20:00:00 23.9 25 Sudoeste 37 Sudoeste 0 1009.1 -0.4 60
2019-06-04 19:00:00 25.2 23 Sudoeste 39 Sudoeste 0 1009.1 -1 56
2019-06-04 18:00:00 26.6 23 Sudoeste 35 Sudoeste 0 1009.3 -1.2 52
2019-06-04 17:00:00 27.7 23 Sudoeste 37 Sudoeste 0 1009.5 -1.3 38
2019-06-04 16:00:00 27.3 26 Sudoeste 42 Sudoeste 0 1010.1 -1.2 42
2019-06-04 15:00:00 27.8 24 Sudoeste 35 Sudoeste 0 1010.5 -0.9 42
2019-06-04 14:00:00 28.2 19 Sudoeste 30 Sudoeste 0 1010.8 -0.9 41
2019-06-04 13:00:00 27.1 14 Sudoeste 28 Sudoeste 0 1011.3 -0.3 47
2019-06-04 12:00:00 26.3 12 Oeste 22 Oeste 0 1011.4 0 53
2019-06-04 11:00:00 24.2 9 Sudoeste 21 Oeste 0 1011.7 0.7 64
2019-06-04 10:00:00 21.6 10 Sur 18 Sudoeste 0 1011.6 0.9 73
2019-06-04 09:00:00 18.3 8 Sur 13 Sur 0 1011.4 0.9 77
2019-06-04 08:00:00 13.4 0 Calma 5 Este 0 1011 0.3 78
2019-06-04 07:00:00 12.1 2 Este 5 Sudeste 0 1010.7 -0.3 80
2019-06-04 06:00:00 12.5 0 Calma 5 Norte 0 1010.5 -1.1 81
2019-06-04 05:00:00 13.9 2 Norte 5 Este 0 1010.7 -1.3 72
2019-06-04 04:00:00 14.5 0 Calma 5 Sudeste 0 1011 -1.3 72
2019-06-04 03:00:00 15.8 4 Sur 8 Sur 0 1011.6 -0.7 74
2019-06-04 02:00:00 16.7 3 Sur 9 Sur 0 1012 -0.3 74
2019-06-04 01:00:00 18.4 8 Sur 15 Sur 0 1012.3 0.5 63
2019-06-04 00:00:00 19.8 10 Sur 17 Sur 0 1012.3 0.7 65
2019-06-03 23:00:00 20.9 8 Sur 17 Sudoeste 0 1012.3 1.1 53
2019-06-03 22:00:00 22.8 11 Sudoeste 22 Sudoeste 0 1011.8 0.7 47
2019-06-03 21:00:00 26.1 16 Sudoeste 28 Sudoeste 0 1011.6 0.4 37
2019-06-03 20:00:00 29.3 21 Sudoeste 32 Sudoeste 0 1011.2 -0.1 34
2019-06-03 19:00:00 32.5 20 Sudoeste 30 Sudoeste 0 1011.1 -0.7 26
2019-06-03 18:00:00 33.8 17 Sur 30 Sur 0 1011.2 -1.2 21
2019-06-03 17:00:00 34.9 10 Sur 28 Sur 0 1011.3 -1.8 18
2019-06-03 16:00:00 34 8 Sudoeste 26 Sur 0 1011.8 -1.6 18
2019-06-03 15:00:00 33.7 10 Sudoeste 22 Sur 0 1012.4 -1.1 21
2019-06-03 14:00:00 32.7 9 Sur 18 Sur 0 1013.1 -0.6 23
2019-06-03 13:00:00 31.3 4 Sudeste 13 Sudeste 0 1013.4 -0.4 25
2019-06-03 12:00:00 29.4 6 Sudeste 11 Sudeste 0 1013.5 -0.2 28
2019-06-03 11:00:00 26.7 4 Este 9 Este 0 1013.7 0.3 36
2019-06-03 10:00:00 24 4 Sudeste 8 Este 0 1013.8 0.7 45
2019-06-03 09:00:00 18.7 5 Sur 8 Sudeste 0 1013.7 0.9 62
2019-06-03 08:00:00 14.1 0 Calma 5 Sudeste 0 1013.4 0.3 80
2019-06-03 07:00:00 13.4 2 Oeste 9 Sur 0 1013.1 -0.5 77
2019-06-03 06:00:00 14.1 4 Oeste 11 Sur 0 1012.8 -1 73
2019-06-03 05:00:00 14.3 10 Norte 17 Norte 0 1013.1 -1.1 74
2019-06-03 04:00:00 14 0 Calma 13 Este 0 1013.6 -0.5 62
2019-06-03 03:00:00 14.2 3 Nordeste 11 Este 0 1013.8 -0.5 59
2019-06-03 02:00:00 15.2 3 Este 9 Norte 0 1014.2 0.7 55
2019-06-03 01:00:00 15.9 3 Norte 9 Noroeste 0 1014.1 1.4 62
2019-06-03 00:00:00 18.8 10 Noroeste 13 Noroeste 0 1014.3 2.1 39
2019-06-02 23:00:00 22.1 8 Sur 21 Sur 0 1013.5 1.7 30
2019-06-02 22:00:00 24.3 12 Sur 26 Sudeste 0 1012.7 1.2 27
2019-06-02 21:00:00 27.1 15 Sudeste 30 Sudeste 0 1012.2 0.6 23
2019-06-02 20:00:00 29.8 17 Sudeste 32 Sur 0 1011.8 -0.1 21
2019-06-02 19:00:00 32.1 19 Sur 30 Sur 0 1011.5 -1 18
2019-06-02 18:00:00 33.2 19 Sur 32 Sur 0 1011.6 -1.2 19
2019-06-02 17:00:00 34 14 Sudeste 28 Sur 0 1011.9 -1.8 19
2019-06-02 16:00:00 33.9 11 Sudeste 28 Este 0 1012.5 -1.6 19
2019-06-02 15:00:00 33.7 9 Sur 18 Sur 0 1012.8 -1.4 20
2019-06-02 14:00:00 32.5 8 Este 21 Este 0 1013.7 -0.7 19
2019-06-02 13:00:00 31.5 13 Este 22 Sudeste 0 1014.1 -0.3 19
2019-06-02 12:00:00 29.7 9 Sudeste 26 Sudeste 0 1014.2 0 22
2019-06-02 11:00:00 28.3 16 Este 28 Sudeste 0 1014.4 0.4 25
2019-06-02 10:00:00 25.5 16 Este 26 Nordeste 0 1014.4 0.8 30
2019-06-02 09:00:00 22.8 13 Nordeste 21 Nordeste 0 1014.2 0.8 41
2019-06-02 08:00:00 17.9 10 Este 17 Nordeste 0 1014 0.4 47
2019-06-02 07:00:00 16.6 11 Nordeste 21 Nordeste 0 1013.6 -0.5 47
2019-06-02 06:00:00 18.2 10 Nordeste 28 Este 0 1013.4 -0.7 42
2019-06-02 05:00:00 20.1 15 Este 26 Este 0 1013.6 -0.6 37
2019-06-02 04:00:00 16.5 8 Este 11 Este 0 1014.1 0 51
2019-06-02 03:00:00 17.6 8 Este 15 Este 0 1014.1 0.2 46
2019-06-02 02:00:00 17.2 8 Este 13 Este 0 1014.2 0.7 47
2019-06-02 01:00:00 17.9 12 Este 15 Este 0 1014.1 1.3 46
2019-06-02 00:00:00 19.3 6 Este 13 Sur 0 1013.9 1.5 45
2019-06-01 23:00:00 21.6 4 Sudeste 18 Sudeste 0 1013.5 1.5 35
2019-06-01 22:00:00 23.5 9 Sudeste 24 Sudeste 0 1012.8 0.7 32
2019-06-01 21:00:00 26.9 18 Sudeste 35 Este 0 1012.4 0.1 28
2019-06-01 20:00:00 29.4 26 Este 46 Este 0 1012 -0.7 22
2019-06-01 19:00:00 30.9 30 Sudeste 48 Este 0 1012.1 -1.1 20
2019-06-01 18:00:00 31.9 27 Este 45 Sudeste 0 1012.3 -1.4 19
2019-06-01 17:00:00 32.1 32 Este 46 Este 0 1012.7 -1.4 19
2019-06-01 16:00:00 32.3 27 Sudeste 42 Sudeste 0 1013.2 -1.5 20
2019-06-01 15:00:00 31.8 24 Este 39 Este 0 1013.7 -1.2 21
2019-06-01 14:00:00 31.2 27 Este 42 Este 0 1014.1 -0.9 22
2019-06-01 13:00:00 29.9 25 Este 42 Este 0 1014.7 -0.2 25
2019-06-01 12:00:00 29 23 Este 41 Este 0 1014.9 0.4 26
2019-06-01 11:00:00 26.9 28 Este 46 Este 0 1015 0.8 28
2019-06-01 10:00:00 25.8 26 Este 42 Este 0 1014.9 1.1 29
2019-06-01 09:00:00 24 21 Este 35 Este 0 1014.5 0.7 33
2019-06-01 08:00:00 21.5 14 Este 37 Este 0 1014.2 0.3 39
2019-06-01 07:00:00 19.4 13 Nordeste 21 Nordeste 0 1013.8 -0.1 48
2019-06-01 06:00:00 19.7 9 Nordeste 24 Nordeste 0 1013.8 -0.5 49
2019-06-01 05:00:00 21.1 17 Nordeste 39 Este 0 1013.9 -0.7 44
2019-06-01 04:00:00 23.1 26 Este 50 Este 0 1013.9 -0.7 37
2019-06-01 03:00:00 22.2 32 Este 52 Este 0 1014.3 -0.4 43
2019-06-01 02:00:00 20.3 14 Este 28 Este 0 1014.6 0.1 52
2019-06-01 01:00:00 21.9 10 Este 24 Este 0 1014.6 1.1 45
2019-06-01 00:00:00 20.7 11 Sudeste 22 Sudeste 0 1014.7 1.6 47
2019-05-31 23:00:00 22 13 Sudeste 42 Este 0 1014.5 1.5 41
2019-05-31 22:00:00 24 28 Este 52 Este 0 1013.5 0.1 34
2019-05-31 21:00:00 26.4 33 Este 54 Este 0 1013.1 -0.5 28
2019-05-31 20:00:00 28 29 Este 54 Sudeste 0 1013 -0.9 27
2019-05-31 19:00:00 29.2 32 Este 54 Este 0 1013.4 -0.8 26
2019-05-31 18:00:00 29.9 37 Este 58 Este 0 1013.6 -0.8 25
2019-05-31 17:00:00 30.2 40 Este 61 Sudeste 0 1013.9 -1.1 24
2019-05-31 16:00:00 31 38 Este 52 Este -- 1014.2 -0.9 23
2019-05-31 15:00:00 31.1 28 Este 42 Este -- 1014.4 -0.9 21
2019-05-31 14:00:00 30.8 27 Este 46 Sudeste -- 1015 -0.5 21
2019-05-31 13:00:00 29.4 27 Este 50 Este 0 1015.1 -0.4 25
2019-05-31 12:00:00 27.9 29 Este 46 Este 0 1015.3 -0.1 29
2019-05-31 11:00:00 26.5 27 Este 52 Este 0 1015.5 0.2 31
2019-05-31 10:00:00 24.6 32 Este 50 Este 0 1015.5 0.4 32
2019-05-31 09:00:00 22.6 29 Este 45 Este 0 1015.4 0.6 35
2019-05-31 08:00:00 20.3 17 Este 28 Este 0 1015.3 0.3 39
2019-05-31 07:00:00 20.4 18 Este 39 Este 0 1015.1 -0.4 37
2019-05-31 06:00:00 19.5 16 Nordeste 32 Este 0 1014.8 -1.2 40
2019-05-31 05:00:00 20.9 18 Este 45 Este 0 1015 -1.5 37
2019-05-31 04:00:00 20.8 13 Este 32 Este 0 1015.5 -1.1 39
2019-05-31 03:00:00 21.2 20 Este 35 Este 0 1016 -0.7 33
2019-05-31 02:00:00 20.5 17 Este 32 Este 0 1016.5 0.2 33
2019-05-31 01:00:00 21.7 20 Este 37 Este 0 1016.6 1 31
2019-05-31 00:00:00 21.8 19 Este 35 Este 0 1016.7 1.6 31
2019-05-30 23:00:00 22.1 24 Este 46 Este 0 1016.3 1.4 36
2019-05-30 22:00:00 22.5 28 Este 42 Este 0 1015.6 0.5 41
2019-05-30 21:00:00 24.4 29 Sudeste 46 Este 0 1015.1 -0.2 39
2019-05-30 20:00:00 26.3 30 Este 50 Este 0 1014.9 -0.5 38
2019-05-30 19:00:00 27.9 30 Este 45 Este 0 1015.1 -0.6 34
2019-05-30 18:00:00 28.8 31 Sudeste 52 Sudeste 0 1015.3 -0.7 31
2019-05-30 17:00:00 28.5 40 Sudeste 55 Este 0 1015.4 -1 32
2019-05-30 16:00:00 30 30 Sudeste 45 Este 0 1015.7 -1 30
2019-05-30 15:00:00 29.9 25 Sudeste 50 Sudeste 0 1016 -0.8 31
2019-05-30 14:00:00 29 33 Sudeste 48 Sudeste 0 1016.4 -0.3 33
2019-05-30 13:00:00 27.8 28 Este 46 Este 0 1016.7 0.1 35
2019-05-30 12:00:00 27.2 28 Este 46 Este 0 1016.8 0.6 34
2019-05-30 11:00:00 26 29 Este 45 Este 0 1016.7 0.8 32
2019-05-30 10:00:00 24.4 24 Este 42 Este 0 1016.6 1 35
2019-05-30 09:00:00 22.4 20 Este 33 Este 0 1016.2 0.9 36
2019-05-30 08:00:00 19.1 12 Este 22 Nordeste 0 1015.9 0.5 51
2019-05-30 07:00:00 17.6 13 Este 21 Este 0 1015.6 0.1 57
2019-05-30 06:00:00 16.5 7 Nordeste 15 Nordeste 0 1015.3 -0.4 66
2019-05-30 05:00:00 17.3 10 Este 18 Este 0 1015.4 -0.4 62
2019-05-30 04:00:00 17.5 11 Este 17 Este 0 1015.5 -0.1 60
2019-05-30 03:00:00 15.6 6 Nordeste 9 Este 0 1015.7 0.4 68
2019-05-30 02:00:00 16.1 6 Nordeste 8 Nordeste 0 1015.8 1.6 70
2019-05-30 01:00:00 18.5 3 Nordeste 22 Sudeste 0 1015.6 2.3 57
2019-05-30 00:00:00 20.6 13 Sudeste 28 Sudeste 0 1015.3 2.6 50
2019-05-29 23:00:00 21.5 15 Sudeste 24 Sudeste 0 1014.2 2.1 44
2019-05-29 22:00:00 22.9 14 Sudeste 30 Sudeste 0 1013.3 1.3 40
2019-05-29 21:00:00 25.6 13 Sudeste 28 Sudeste 0 1012.7 0.5 36
2019-05-29 20:00:00 28.2 17 Sudeste 30 Sudeste 0 1012.1 -0.3 33
2019-05-29 19:00:00 29.7 19 Sudeste 33 Sudeste 0 1012 -0.7 30
2019-05-29 18:00:00 31.5 15 Sudeste 28 Sur 0 1012.2 -0.8 30
2019-05-29 17:00:00 32.2 14 Sur 28 Sudeste 0 1012.4 -1 28
2019-05-29 16:00:00 32.6 16 Sudeste 24 Sudeste 0 1012.7 -0.8 27
2019-05-29 15:00:00 31.7 6 Nordeste 24 Este 0 1013 -0.5 30
2019-05-29 14:00:00 31.2 14 Este 26 Este 0 1013.4 0 32
2019-05-29 13:00:00 30.3 15 Este 30 Este 0 1013.5 0.3 36
2019-05-29 12:00:00 28.5 9 Sur 21 Sur 0 1013.5 0.6 39
2019-05-29 11:00:00 27.2 9 Este 17 Este 0 1013.4 1.1 42
2019-05-29 10:00:00 24.4 8 Norte 15 Norte 0 1013.2 1.5 51
2019-05-29 09:00:00 20 3 Nordeste 9 Nordeste 0 1012.9 1.9 72
2019-05-29 08:00:00 16.3 4 Norte 13 Noroeste 0 1012.3 1.7 78
2019-05-29 07:00:00 14.4 8 Norte 11 Norte 0 1011.7 1.6 87
2019-05-29 06:00:00 14.9 5 Nordeste 8 Norte 0 1011 0.9 87
2019-05-29 05:00:00 15.9 2 Sur 5 Sur 0 1010.6 0.2 88
2019-05-29 04:00:00 16.1 3 Sudeste 9 Este 0 1010.1 -0.4 85
2019-05-29 03:00:00 16.4 6 Este 11 Este 0 1010.1 -0.3 84
2019-05-29 02:00:00 16.6 8 Este 11 Este 0 1010.4 0.4 82
2019-05-29 01:00:00 17.3 6 Este 11 Este 0 1010.5 0.9 81
2019-05-29 00:00:00 18.1 3 Este 5 Nordeste 0 1010.4 1.2 83
2019-05-28 23:00:00 20 0 Calma 13 Sudoeste 0 1010 1.3 70
2019-05-28 22:00:00 21.9 11 Sudoeste 18 Sudoeste 0 1009.6 1 65
2019-05-28 21:00:00 24.7 16 Sudoeste 22 Sudoeste 0 1009.2 0.4 54
2019-05-28 20:00:00 28 14 Sur 24 Sur 0 1008.7 -0.1 42
2019-05-28 19:00:00 29.8 16 Sudoeste 26 Sudoeste 0 1008.6 -0.3 35
2019-05-28 18:00:00 30.9 18 Sudoeste 28 Sudoeste 0 1008.8 -0.1 28
2019-05-28 17:00:00 31.5 19 Sur 32 Sudoeste 0 1008.8 -0.1 28
2019-05-28 16:00:00 31.9 20 Sudoeste 33 Sur 0 1008.9 -0.3 29
2019-05-28 15:00:00 32.8 17 Sudoeste 30 Sudoeste 0 1008.9 -0.1 27
2019-05-28 14:00:00 32.5 16 Sudoeste 26 Sudoeste 0 1008.9 0 33
2019-05-28 13:00:00 30.6 8 Sudoeste 22 Sudoeste 0 1009.2 0.5 36
2019-05-28 12:00:00 28.4 6 Sur 15 Sur 0 1009 0.7 42
2019-05-28 11:00:00 25.9 5 Sur 13 Este 0 1008.9 0.9 51
2019-05-28 10:00:00 23.3 3 Sudeste 8 Sudeste 0 1008.7 1.1 57
2019-05-28 09:00:00 19.1 0 Calma 8 Sudoeste 0 1008.3 1 73
2019-05-28 08:00:00 14.7 3 Este 5 Este 0 1008 0.6 84
2019-05-28 07:00:00 13.6 0 Calma 5 Norte 0 1007.6 0.1 85
2019-05-28 06:00:00 14.7 4 Este 8 Este 0 1007.3 -0.6 83
2019-05-28 05:00:00 15.2 3 Nordeste 8 Este 0 1007.4 -0.8 83
2019-05-28 04:00:00 16 3 Norte 8 Nordeste 0 1007.5 -0.8 82
2019-05-28 03:00:00 16.7 4 Nordeste -- -- 0 1007.9 -0.8 80
2019-05-28 02:00:00 17.7 2 Este 9 Nordeste 0 1008.2 -0.4 77
2019-05-28 01:00:00 18.6 0 Calma 11 Este 0 1008.3 -0.1 74
2019-05-28 00:00:00 19.8 7 Este 11 Este 0 1008.7 0.4 67
2019-05-27 23:00:00 21.7 8 Sudeste 13 Sur 0 1008.6 1 60
2019-05-27 22:00:00 22.7 12 Sudoeste 21 Sudoeste 0 1008.4 1 56
2019-05-27 21:00:00 25.6 16 Sudoeste 30 Sudoeste 0 1008.3 0.9 54
2019-05-27 20:00:00 28.9 23 Sudoeste 32 Sudoeste 0 1007.6 -0.2 37
2019-05-27 19:00:00 32.1 26 Sudoeste 33 Sudoeste 0 1007.4 -0.8 28
2019-05-27 18:00:00 34.3 22 Oeste 35 Sudoeste 0 1007.4 -1.3 23
2019-05-27 17:00:00 34.6 24 Oeste 37 Sudoeste 0 1007.8 -1.8 25
2019-05-27 16:00:00 35.1 11 Noroeste 24 Noroeste 0 1008.2 -2 23
2019-05-27 15:00:00 34 8 Oeste 21 Oeste 0 1008.7 -1.5 24
2019-05-27 14:00:00 32.8 6 Oeste 21 Oeste 0 1009.6 -1 28
2019-05-27 13:00:00 31.1 5 Norte 13 Norte 0 1010.2 -0.3 31
2019-05-27 12:00:00 29 5 Este 17 Norte 0 1010.2 0 35
2019-05-27 11:00:00 26.6 5 Norte 15 Norte 0 1010.6 0.4 44
2019-05-27 10:00:00 22.9 3 Nordeste 8 Noroeste 0 1010.5 0.5 57
2019-05-27 09:00:00 18.4 4 Nordeste 8 Nordeste 0 1010.2 0.1 73
2019-05-27 08:00:00 14.1 4 Nordeste 9 Este 0 1010.2 0.1 85
2019-05-27 07:00:00 12.9 0 Calma 9 Este 0 1010 -0.4 89
2019-05-27 06:00:00 13.1 5 Nordeste 9 Nordeste 0 1010.1 -0.6 89
2019-05-27 05:00:00 13.8 8 Norte 9 Norte 0 1010.1 -1.1 86
2019-05-27 04:00:00 14.2 6 Norte 11 Nordeste 0 1010.4 -1.4 81
2019-05-27 03:00:00 15.4 7 Nordeste 11 Este 0 1010.7 -1.4 83
2019-05-27 02:00:00 16.3 6 Este 11 Este 0 1011.2 -0.8 79
2019-05-27 01:00:00 16.7 6 Este 8 Este 0 1011.8 0.3 80
2019-05-27 00:00:00 18.9 7 Sudeste 11 Sudoeste 0 1012.1 1.1 71
2019-05-26 23:00:00 20.1 8 Sudoeste 24 Oeste 0 1012 1.5 66
2019-05-26 22:00:00 21.9 13 Oeste 24 Sudoeste 0 1011.5 1.1 60
2019-05-26 21:00:00 24.7 19 Sudoeste 30 Sudoeste 0 1011 0.4 45
2019-05-26 20:00:00 27.1 22 Sudoeste 32 Sudoeste 0 1010.5 -0.3 38
2019-05-26 19:00:00 29.6 23 Sudoeste 35 Sudoeste 0 1010.4 -1 32
2019-05-26 18:00:00 30.3 26 Sudoeste 35 Sudeste 0 1010.6 -1.6 31
2019-05-26 17:00:00 32.3 10 Norte 42 Noroeste 0 1010.8 -2.1 23
2019-05-26 16:00:00 31.4 7 Norte 28 Noroeste 0 1011.4 -2 28
2019-05-26 15:00:00 31.3 10 Norte 22 Noroeste 0 1012.2 -1.6 32
2019-05-26 14:00:00 29.9 6 Sudeste 13 Este 0 1012.9 -1 35
2019-05-26 13:00:00 28.7 6 Noroeste 13 Noroeste 0 1013.4 -0.7 36
2019-05-26 12:00:00 27.2 6 Este 24 Nordeste 0 1013.8 -0.1 39
2019-05-26 11:00:00 25.3 5 Nordeste 15 Sudeste 0 1013.9 0.4 42
2019-05-26 10:00:00 22 5 Sudeste 11 Sudeste 0 1014.1 0.8 55
2019-05-26 09:00:00 18.3 3 Sudeste 8 Este 0 1013.9 1.1 71
2019-05-26 08:00:00 15 6 Nordeste 18 Norte 0 1013.5 0.7 87
2019-05-26 07:00:00 13.5 8 Norte 11 Norte 0 1013.3 0.2 89
2019-05-26 06:00:00 13.7 4 Nordeste 9 Este 0 1012.8 -0.7 87
2019-05-26 05:00:00 14.5 6 Este 9 Este 0 1012.8 -1.1 85
2019-05-26 04:00:00 15.7 8 Este 11 Este 0 1013.1 -1.1 82
2019-05-26 03:00:00 17.1 5 Sudeste 17 Sur 0 1013.5 -0.7 78
2019-05-26 02:00:00 17 8 Sur 13 Sur 0 1013.9 0.2 77
2019-05-26 01:00:00 18.4 8 Sur 13 Sur 0 1014.2 1.5 77
2019-05-26 00:00:00 19.1 10 Oeste 15 Oeste 0 1014.2 2 79
2019-05-25 23:00:00 20 11 Sudoeste 15 Sudoeste 0 1013.7 2 73
2019-05-25 22:00:00 21.1 10 Sur 15 Sur 0 1012.7 1.5 69
2019-05-25 21:00:00 23.2 13 Sur 30 Sur 0 1012.2 1.3 61
2019-05-25 20:00:00 24.2 22 Sur 35 Sur 0 1011.7 0.8 60
2019-05-25 19:00:00 28.4 23 Sudoeste 39 Sudoeste 0 1011.2 0 47
2019-05-25 18:00:00 29.3 21 Sudoeste 37 Sudoeste 0 1010.9 -0.8 43
2019-05-25 17:00:00 31.1 14 Norte 35 Norte 0 1010.9 -1.5 25
2019-05-25 16:00:00 30.8 16 Norte 42 Norte 0 1011.2 -1.6 27
2019-05-25 15:00:00 30.3 11 Norte 33 Norte 0 1011.7 -1.3 29
2019-05-25 14:00:00 28.5 12 Noroeste 26 Norte 0 1012.4 -0.4 44
2019-05-25 13:00:00 26.5 5 Norte 26 Norte 0 1012.8 0 52
2019-05-25 12:00:00 24.9 12 Norte 30 Norte 0 1013 0.6 55
2019-05-25 11:00:00 23.3 12 Norte 21 Norte 0 1012.8 1.2 61
2019-05-25 10:00:00 21.2 8 Nordeste 15 Norte 0 1012.8 1.9 67
2019-05-25 09:00:00 18.4 11 Norte 17 Norte 0 1012.4 1.8 82
2019-05-25 08:00:00 14.9 7 Nordeste 9 Nordeste 0 1011.6 1.3 94
2019-05-25 07:00:00 15.6 4 Sur 11 Sur 0 1010.9 0.9 91
2019-05-25 06:00:00 16.3 8 Sur 13 Sur 0 1010.6 0.7 89
2019-05-25 05:00:00 16.9 9 Sur 26 Sur 0 1010.3 0.7 88
2019-05-25 04:00:00 17.5 14 Sur 26 Sudeste 0 1010 0.2 86
2019-05-25 03:00:00 17.1 14 Sudeste 28 Sudeste 0 1009.9 0.3 91
2019-05-25 02:00:00 16.9 6 Sudeste 13 Sudeste 0 1009.6 -0.1 87
2019-05-25 01:00:00 17.7 7 Sur 18 Sudeste 0 1009.8 0.6 82
2019-05-25 00:00:00 18.1 10 Sur 18 Sur 0 1009.6 1.1 81